Time;durP1;ratioP1;P1;durP2;ratioP2;P2;SDS_P1;SDS_P2;PMS_P1;PMS_P2;Temp;Humidity;BMP_temperature;BMP_pressure;BME280_temperature;BME280_humidity;BME280_pressure;Samples;Min_cycle;Max_cycle;Signal;HPM_P1;HPM_P2
2021/11/16 00:01:39;;;;;;;49.42;26.65;;;;;;;7.87;63.68;101506.84;7379444;19;20035;-70
2021/11/16 00:04:27;;;;;;;48.80;27.58;;;;;;;7.88;63.29;101494.66;7385409;19;20026;-70
2021/11/16 00:07:14;;;;;;;46.97;26.00;;;;;;;7.88;63.31;101495.50;7380173;19;20364;-70
2021/11/16 00:10:02;;;;;;;50.30;26.38;;;;;;;7.94;63.69;101489.41;7381346;19;20025;-70
2021/11/16 00:12:50;;;;;;;44.88;25.58;;;;;;;8.06;63.31;101499.72;7378048;19;20025;-69
2021/11/16 00:15:40;;;;;;;44.72;26.40;;;;;;;8.09;63.11;101489.25;7379356;19;20041;-69
2021/11/16 00:18:30;;;;;;;48.55;25.73;;;;;;;8.08;62.97;101489.28;7379530;19;20029;-69
2021/11/16 00:21:19;;;;;;;46.28;25.90;;;;;;;8.09;63.31;101481.41;7379938;19;20022;-69
2021/11/16 00:24:13;;;;;;;51.50;28.50;;;;;;;8.04;62.93;101472.75;7380428;19;20796;-69
2021/11/16 00:27:00;;;;;;;46.10;24.67;;;;;;;8.06;63.00;101472.75;7379730;19;20029;-68
2021/11/16 00:29:48;;;;;;;47.72;27.08;;;;;;;8.00;63.27;101471.06;7387337;19;20044;-69
2021/11/16 00:32:38;;;;;;;45.60;26.13;;;;;;;8.04;63.50;101471.91;7386905;19;20042;-70
2021/11/16 00:35:26;;;;;;;47.83;26.83;;;;;;;8.08;63.47;101461.41;7388520;19;20070;-70
2021/11/16 00:38:15;;;;;;;47.15;25.52;;;;;;;8.14;63.26;101458.75;7385489;19;20129;-69
2021/11/16 00:41:03;;;;;;;47.45;26.75;;;;;;;8.18;63.12;101468.28;7388392;19;20022;-69
2021/11/16 00:43:52;;;;;;;44.55;25.95;;;;;;;8.18;62.81;101463.06;7389303;19;20030;-70
2021/11/16 00:46:39;;;;;;;47.65;25.42;;;;;;;8.21;63.19;101455.19;7390164;19;20031;-71
2021/11/16 00:49:29;;;;;;;42.85;24.77;;;;;;;8.17;62.93;101463.09;7391098;19;20017;-71
2021/11/16 00:52:17;;;;;;;48.95;26.38;;;;;;;8.20;62.89;101461.31;7388757;19;20115;-71
2021/11/16 00:55:05;;;;;;;46.03;26.15;;;;;;;8.25;62.48;101454.28;7390887;19;20386;-71
2021/11/16 00:57:53;;;;;;;49.05;26.13;;;;;;;8.26;62.71;101456.00;7387309;19;20022;-70
2021/11/16 01:00:42;;;;;;;47.30;26.38;;;;;;;8.32;62.71;101454.22;7389928;19;20041;-70
2021/11/16 01:03:31;;;;;;;52.25;26.10;;;;;;;8.24;63.12;101449.94;7387748;19;20021;-71
2021/11/16 01:06:21;;;;;;;48.20;26.15;;;;;;;8.21;62.90;101444.75;7389884;19;20514;-69
2021/11/16 01:09:09;;;;;;;51.08;26.90;;;;;;;8.30;62.95;101453.38;7390100;19;20029;-69
2021/11/16 01:11:56;;;;;;;51.90;27.45;;;;;;;8.32;62.60;101451.59;7389685;19;20053;-69
2021/11/16 01:14:44;;;;;;;47.55;26.63;;;;;;;8.35;62.45;101451.63;7391365;19;20025;-71
2021/11/16 01:17:32;;;;;;;49.60;27.08;;;;;;;8.41;62.42;101441.09;7387417;19;20424;-69
2021/11/16 01:20:22;;;;;;;48.70;26.90;;;;;;;8.43;62.56;101434.13;7387317;19;20037;-70
2021/11/16 01:23:16;;;;;;;48.13;26.85;;;;;;;8.47;62.40;101422.75;7388665;19;20124;-70
2021/11/16 01:26:04;;;;;;;43.50;25.92;;;;;;;8.49;62.23;101421.84;7388294;19;20643;-70
2021/11/16 01:28:52;;;;;;;52.13;28.10;;;;;;;8.47;62.28;101425.34;7390607;19;20033;-69
2021/11/16 01:31:40;;;;;;;49.15;26.33;;;;;;;8.49;61.90;101420.97;7388619;19;20053;-69
2021/11/16 01:34:31;;;;;;;51.97;25.73;;;;;;;8.49;62.48;101424.44;7390512;19;20025;-69
2021/11/16 01:37:18;;;;;;;47.97;26.97;;;;;;;8.50;62.18;101427.94;7386998;19;20022;-69
2021/11/16 01:40:14;;;;;;;45.08;25.40;;;;;;;8.50;61.97;101428.78;7389457;19;20266;-69
2021/11/16 01:43:03;;;;;;;47.00;26.70;;;;;;;8.56;61.79;101422.66;7385916;19;20107;-69
2021/11/16 01:45:51;;;;;;;46.17;25.10;;;;;;;8.52;61.94;101415.72;7389136;19;20030;-69
2021/11/16 01:48:39;;;;;;;49.47;25.95;;;;;;;8.47;62.12;101407.06;7390245;19;20025;-69
2021/11/16 01:51:29;;;;;;;47.42;27.83;;;;;;;8.50;62.13;101409.63;7388496;19;20037;-69
2021/11/16 01:54:17;;;;;;;46.85;27.65;;;;;;;8.46;62.31;101405.34;7389389;19;20030;-69
2021/11/16 01:57:08;;;;;;;43.95;25.02;;;;;;;8.46;62.31;101406.19;7386674;19;20034;-68
2021/11/16 01:59:56;;;;;;;41.63;25.20;;;;;;;8.49;61.71;101406.16;7388857;19;21151;-68
2021/11/16 02:02:43;;;;;;;48.40;27.42;;;;;;;8.47;62.13;101407.06;7388565;19;20049;-68
2021/11/16 02:05:40;;;;;;;50.33;26.65;;;;;;;8.42;62.17;101406.25;7389700;19;20294;-68
2021/11/16 02:08:28;;;;;;;47.30;25.00;;;;;;;8.47;62.11;101394.84;7388833;19;20610;-69
2021/11/16 02:11:16;;;;;;;47.13;26.13;;;;;;;8.48;62.20;101393.09;7388735;19;20032;-69
2021/11/16 02:14:08;;;;;;;49.50;25.65;;;;;;;8.50;62.35;101386.13;7390660;19;20048;-69
2021/11/16 02:16:57;;;;;;;47.67;26.05;;;;;;;8.50;61.80;101380.88;7388966;19;20039;-68
2021/11/16 02:19:46;;;;;;;52.08;25.80;;;;;;;8.49;61.83;101376.53;7389690;19;20512;-68
2021/11/16 02:22:37;;;;;;;47.00;26.15;;;;;;;8.49;62.04;101381.78;7388852;19;20029;-68
2021/11/16 02:25:25;;;;;;;51.60;27.83;;;;;;;8.50;62.03;101378.28;7391051;19;20026;-68
2021/11/16 02:28:12;;;;;;;46.83;26.90;;;;;;;8.57;61.84;101372.13;7388174;19;20034;-68
2021/11/16 02:31:00;;;;;;;43.75;23.60;;;;;;;8.61;61.73;101365.97;7389536;19;20038;-68
2021/11/16 02:33:49;;;;;;;51.47;28.13;;;;;;;8.58;61.67;101359.91;7390576;19;20048;-68
2021/11/16 02:36:37;;;;;;;50.53;27.40;;;;;;;8.57;62.14;101355.56;7388941;19;20020;-68
2021/11/16 02:39:27;;;;;;;48.83;26.65;;;;;;;8.57;61.95;101356.44;7388856;19;20025;-68
2021/11/16 02:42:18;;;;;;;49.15;26.25;;;;;;;8.57;61.88;101355.56;7388367;19;20025;-68
2021/11/16 02:45:09;;;;;;;51.90;27.05;;;;;;;8.55;62.08;101352.97;7389311;19;20013;-68
2021/11/16 02:47:57;;;;;;;51.60;27.05;;;;;;;8.55;62.14;101352.97;7388257;19;20614;-68
2021/11/16 02:50:49;;;;;;;51.75;27.15;;;;;;;8.53;61.84;101346.88;7387959;19;20025;-68
2021/11/16 02:53:38;;;;;;;53.03;26.00;;;;;;;8.54;61.82;101348.63;7389598;19;20017;-68
2021/11/16 02:56:30;;;;;;;53.38;28.17;;;;;;;8.53;61.68;101346.88;7388669;19;20045;-68
2021/11/16 02:59:18;;;;;;;50.03;26.42;;;;;;;8.55;61.99;101347.75;7389438;19;20506;-68
2021/11/16 03:02:06;;;;;;;41.78;24.50;;;;;;;8.50;61.88;101347.78;7389097;19;20490;-69
2021/11/16 03:04:54;;;;;;;50.53;26.77;;;;;;;8.49;61.80;101340.81;7389320;19;20515;-68
2021/11/16 03:07:46;;;;;;;53.58;28.27;;;;;;;8.50;62.06;101344.31;7387512;19;20026;-70
2021/11/16 03:10:33;;;;;;;45.63;26.25;;;;;;;8.53;62.15;101350.34;7387328;19;20028;-68
2021/11/16 03:13:25;;;;;;;45.63;25.35;;;;;;;8.46;62.20;101346.09;7385907;19;20049;-69
2021/11/16 03:16:16;;;;;;;51.85;28.38;;;;;;;8.49;61.91;101347.81;7388252;19;20522;-68
2021/11/16 03:19:03;;;;;;;52.40;28.30;;;;;;;8.53;61.80;101339.03;7388557;19;20028;-68
2021/11/16 03:21:58;;;;;;;54.10;25.17;;;;;;;8.50;62.12;101333.84;7387008;19;20099;-69
2021/11/16 03:24:46;;;;;;;58.95;29.25;;;;;;;8.53;61.92;101336.41;7388812;19;20427;-69
2021/11/16 03:27:36;;;;;;;56.25;28.63;;;;;;;8.59;61.91;101338.13;7386187;19;20062;-69
2021/11/16 03:30:28;;;;;;;56.97;28.80;;;;;;;8.57;62.09;101337.28;7388458;19;20083;-69
2021/11/16 03:33:17;;;;;;;51.50;27.17;;;;;;;8.59;61.85;101341.59;7387070;19;20098;-68
2021/11/16 03:36:06;;;;;;;52.10;27.10;;;;;;;8.53;62.13;101333.81;7388304;19;20093;-68
2021/11/16 03:38:55;;;;;;;51.05;26.83;;;;;;;8.56;62.01;101331.19;7388987;19;20028;-68
2021/11/16 03:41:45;;;;;;;49.60;27.02;;;;;;;8.54;62.17;101331.19;7388127;19;20448;-68
2021/11/16 03:44:33;;;;;;;51.45;25.58;;;;;;;8.53;61.83;101336.41;7388501;19;20113;-68
2021/11/16 03:47:23;;;;;;;54.17;27.15;;;;;;;8.51;62.01;101335.56;7385543;19;20497;-68
2021/11/16 03:50:13;;;;;;;58.10;28.38;;;;;;;8.53;61.76;101339.91;7386492;19;20048;-68
2021/11/16 03:53:03;;;;;;;53.75;27.15;;;;;;;8.56;61.77;101339.03;7385334;19;20030;-68
2021/11/16 03:55:50;;;;;;;56.78;26.85;;;;;;;8.57;62.13;101340.75;7386287;19;20541;-68
2021/11/16 03:58:40;;;;;;;49.42;27.33;;;;;;;8.56;61.94;101336.41;7382595;19;20029;-68
2021/11/16 04:01:28;;;;;;;51.42;27.10;;;;;;;8.51;61.83;101346.91;7386300;19;20052;-68
2021/11/16 04:04:19;;;;;;;51.50;29.63;;;;;;;8.49;62.04;101345.19;7385172;19;20526;-68
2021/11/16 04:07:07;;;;;;;56.42;29.52;;;;;;;8.50;62.32;101339.94;7386620;19;20126;-67
2021/11/16 04:09:54;;;;;;;48.88;25.95;;;;;;;8.51;61.98;101340.81;7387383;19;20096;-68
2021/11/16 04:12:43;;;;;;;52.15;28.35;;;;;;;8.57;62.01;101334.66;7385758;19;20642;-68
2021/11/16 04:15:32;;;;;;;47.05;25.42;;;;;;;8.55;61.88;101327.69;7386850;19;20017;-68
2021/11/16 04:18:22;;;;;;;56.90;26.48;;;;;;;8.50;61.85;101321.66;7385032;19;20049;-68
2021/11/16 04:21:12;;;;;;;55.25;27.20;;;;;;;8.48;61.88;101328.66;7385570;19;20017;-69
2021/11/16 04:23:59;;;;;;;58.30;28.70;;;;;;;8.52;62.10;101332.06;7386710;19;20048;-68
2021/11/16 04:26:47;;;;;;;54.88;28.70;;;;;;;8.53;62.19;101329.44;7385752;19;20676;-69
2021/11/16 04:29:35;;;;;;;55.63;29.15;;;;;;;8.47;62.45;101333.88;7386626;19;20745;-68
2021/11/16 04:32:22;;;;;;;56.00;28.23;;;;;;;8.46;62.31;101337.38;7384056;19;20629;-68
2021/11/16 04:35:12;;;;;;;56.13;28.27;;;;;;;8.50;61.95;101336.47;7384886;19;20030;-68
2021/11/16 04:38:04;;;;;;;49.55;27.02;;;;;;;8.52;61.72;101337.31;7384820;19;20357;-68
2021/11/16 04:40:56;;;;;;;46.20;24.73;;;;;;;8.46;62.22;101337.38;7384371;19;20039;-67
2021/11/16 04:43:44;;;;;;;46.25;25.52;;;;;;;8.45;61.92;101330.44;7386263;19;20034;-68
2021/11/16 04:46:32;;;;;;;54.72;26.33;;;;;;;8.45;62.30;101335.66;7384977;19;20061;-68
2021/11/16 04:49:24;;;;;;;47.70;26.75;;;;;;;8.46;61.85;101343.47;7384949;19;20352;-68
2021/11/16 04:52:20;;;;;;;54.15;27.88;;;;;;;8.49;62.29;101342.56;7384141;19;20048;-68
2021/11/16 04:55:26;;;;;;;54.13;27.58;;;;;;;8.45;61.88;101344.38;7384053;19;20039;-68
2021/11/16 05:04:17;;;;;;;39.88;20.52;;;;;;;8.60;61.56;101343.31;7385557;19;20508;-68
2021/11/16 05:07:05;;;;;;;53.65;27.45;;;;;;;8.59;61.73;101348.56;7383543;19;20513;-69
2021/11/16 05:09:54;;;;;;;49.97;25.42;;;;;;;8.61;61.89;101338.97;7384545;19;20601;-69
2021/11/16 05:12:45;;;;;;;54.08;26.98;;;;;;;8.63;61.76;101345.88;7383569;19;20495;-69
2021/11/16 05:15:34;;;;;;;52.38;26.55;;;;;;;8.70;61.63;101346.66;7390333;19;20376;-69
2021/11/16 05:18:21;;;;;;;50.75;26.27;;;;;;;8.68;61.68;101349.31;7389229;19;20029;-69
2021/11/16 05:21:10;;;;;;;51.15;28.63;;;;;;;8.69;62.15;101348.41;7391574;19;20061;-69
2021/11/16 05:24:03;;;;;;;51.97;26.40;;;;;;;8.70;61.80;101342.28;7392715;19;20021;-69
2021/11/16 05:26:50;;;;;;;51.22;26.15;;;;;;;8.75;61.98;101348.34;7391554;19;20452;-69
2021/11/16 05:29:40;;;;;;;54.70;28.27;;;;;;;8.76;61.99;101347.47;7392528;19;20021;-68
2021/11/16 05:32:28;;;;;;;51.67;27.52;;;;;;;8.83;61.67;101358.69;7389949;19;20029;-71
2021/11/16 05:35:15;;;;;;;52.53;27.42;;;;;;;8.82;61.86;101359.59;7390955;19;20022;-69
2021/11/16 05:38:03;;;;;;;57.95;27.85;;;;;;;8.78;61.86;101355.28;7387998;19;20123;-67
2021/11/16 05:40:51;;;;;;;54.20;28.30;;;;;;;8.75;61.77;101348.34;7390690;19;20452;-68
2021/11/16 05:43:41;;;;;;;49.33;26.95;;;;;;;8.82;62.01;101347.38;7389102;19;20403;-69
2021/11/16 05:46:32;;;;;;;52.25;26.67;;;;;;;8.81;61.57;101352.63;7391054;19;20049;-70
2021/11/16 05:49:20;;;;;;;53.00;28.00;;;;;;;8.85;61.91;101352.56;7391393;19;20494;-69
2021/11/16 05:52:08;;;;;;;55.28;29.02;;;;;;;8.92;61.48;101352.47;7390041;19;20116;-69
2021/11/16 05:54:56;;;;;;;51.28;27.02;;;;;;;8.90;61.84;101362.09;7391507;19;20526;-69
2021/11/16 05:57:48;;;;;;;50.83;26.67;;;;;;;8.90;61.38;101364.69;7389997;19;20029;-69
2021/11/16 06:00:36;;;;;;;48.00;28.40;;;;;;;8.96;61.61;101369.88;7390202;19;20495;-69
2021/11/16 06:03:27;;;;;;;51.75;27.23;;;;;;;8.87;61.52;101360.38;7387780;19;20045;-69
2021/11/16 06:06:14;;;;;;;52.08;27.08;;;;;;;8.96;61.19;101367.25;7390769;19;20384;-68
2021/11/16 06:09:05;;;;;;;49.35;27.10;;;;;;;8.98;61.19;101366.34;7391113;19;20613;-69
2021/11/16 06:11:52;;;;;;;53.28;25.65;;;;;;;8.95;60.99;101360.25;7389209;19;20116;-69
2021/11/16 06:14:40;;;;;;;56.85;26.98;;;;;;;8.97;61.51;101363.75;7388913;19;20018;-68
2021/11/16 06:17:28;;;;;;;51.75;26.58;;;;;;;8.98;61.64;101357.63;7388907;19;20018;-69
2021/11/16 06:20:21;;;;;;;54.42;28.40;;;;;;;8.99;61.49;101370.69;7388066;19;20028;-69
2021/11/16 06:23:11;;;;;;;52.08;26.35;;;;;;;9.04;60.92;101368.00;7386649;19;20348;-70
2021/11/16 06:25:59;;;;;;;51.25;26.67;;;;;;;9.11;61.18;101369.63;7386575;19;20021;-70
2021/11/16 06:28:46;;;;;;;54.10;26.55;;;;;;;9.16;61.03;101365.19;7388994;19;20097;-69
2021/11/16 06:31:34;;;;;;;51.53;28.05;;;;;;;9.14;60.51;101362.59;7388965;19;20037;-65
2021/11/16 06:34:22;;;;;;;51.17;27.27;;;;;;;9.15;60.66;101360.84;7390116;19;20042;-66
2021/11/16 06:37:12;;;;;;;54.15;30.17;;;;;;;9.13;60.90;101363.47;7388360;19;20021;-67
2021/11/16 06:39:59;;;;;;;55.03;28.10;;;;;;;9.19;60.99;101373.03;7388689;19;20042;-67
2021/11/16 06:42:48;;;;;;;50.75;27.63;;;;;;;9.17;60.66;101364.34;7388510;19;20022;-65
2021/11/16 06:45:36;;;;;;;51.38;27.10;;;;;;;9.23;60.56;101361.63;7389649;19;20379;-65
2021/11/16 06:48:24;;;;;;;57.75;29.67;;;;;;;9.26;60.86;101365.94;7387434;19;20522;-66
2021/11/16 06:51:12;;;;;;;50.78;26.40;;;;;;;9.30;60.42;101367.59;7389493;19;20042;-68
2021/11/16 06:54:02;;;;;;;61.25;29.40;;;;;;;9.31;60.52;101372.81;7388731;19;20021;-69
2021/11/16 06:56:51;;;;;;;53.97;29.17;;;;;;;9.31;60.36;101354.50;7388094;19;20456;-70
2021/11/16 06:59:39;;;;;;;55.30;28.42;;;;;;;9.29;60.66;101364.13;7385161;19;20026;-68
2021/11/16 07:02:26;;;;;;;50.00;25.45;;;;;;;9.31;60.25;101364.97;7384951;19;20021;-69
2021/11/16 07:05:15;;;;;;;63.90;29.30;;;;;;;9.33;60.22;101371.03;7387559;19;20041;-69
2021/11/16 07:08:04;;;;;;;59.83;30.02;;;;;;;9.30;60.28;101363.25;7383672;19;20029;-68
2021/11/16 07:11:02;;;;;;;56.50;28.42;;;;;;;9.30;60.80;101365.00;7387402;19;20032;-70
2021/11/16 07:14:02;;;;;;;59.65;30.42;;;;;;;9.36;60.16;101357.91;7388541;19;20022;-68
2021/11/16 07:17:01;;;;;;;50.85;26.42;;;;;;;9.39;60.06;101350.03;7388019;19;20025;-68
2021/11/16 07:19:52;;;;;;;49.83;27.27;;;;;;;9.42;59.98;101354.34;7387760;19;20022;-68
2021/11/16 07:22:42;;;;;;;47.90;27.73;;;;;;;9.40;60.25;101346.53;7382570;19;20017;-68
2021/11/16 07:25:30;;;;;;;52.75;26.90;;;;;;;9.45;59.94;101344.69;7385011;19;20024;-68
2021/11/16 07:28:21;;;;;;;47.72;27.45;;;;;;;9.48;59.84;101339.41;7383240;19;20415;-69
2021/11/16 07:31:09;;;;;;;49.90;28.33;;;;;;;9.51;60.22;101333.25;7383982;19;20024;-68
2021/11/16 07:33:59;;;;;;;52.75;29.42;;;;;;;9.57;59.80;101337.50;7388268;19;20039;-68
2021/11/16 07:36:57;;;;;;;51.97;31.67;;;;;;;9.60;59.97;101327.00;7384058;19;20498;-68
2021/11/16 07:39:53;;;;;;;54.15;30.05;;;;;;;9.55;60.16;101323.56;7387595;19;20407;-70
2021/11/16 07:42:53;;;;;;;55.30;28.05;;;;;;;9.52;59.69;101326.25;7381674;19;20030;-69
2021/11/16 07:45:45;;;;;;;65.22;32.00;;;;;;;9.56;59.71;101325.31;7365625;19;20418;-67
2021/11/16 07:48:33;;;;;;;;;;;;;;;9.68;60.03;101318.13;7390421;19;20021;-67
2021/11/16 07:51:21;;;;;;;53.08;27.73;;;;;;;9.74;59.38;101325.84;7385866;19;20275;-69
2021/11/16 07:54:08;;;;;;;59.03;29.52;;;;;;;9.70;59.31;101331.19;7383412;19;20117;-69
2021/11/16 07:57:03;;;;;;;54.72;29.55;;;;;;;9.72;59.50;101317.16;7384787;19;20026;-66
2021/11/16 08:02:36;;;;;;;58.78;30.38;;;;;;;9.65;59.68;101330.41;7387561;19;20711;-73
2021/11/16 08:05:39;;;;;;;55.88;29.30;;;;;;;9.72;59.38;101321.53;7384066;19;20032;-73
2021/11/16 08:08:50;;;;;;;55.83;29.95;;;;;;;9.74;59.31;101319.75;7384979;19;20026;-76
2021/11/16 08:11:42;;;;;;;61.80;29.45;;;;;;;9.75;59.45;101317.09;7384368;19;20030;-72
2021/11/16 08:14:29;;;;;;;;;;;;;;;9.88;59.17;101316.88;7388112;19;20029;-71
2021/11/16 08:17:17;;;;;;;51.10;28.73;;;;;;;9.95;58.77;101310.63;7383996;19;20393;-73
2021/11/16 08:20:11;;;;;;;65.05;30.15;;;;;;;9.93;59.09;101300.19;7382804;19;20048;-72
2021/11/16 08:23:08;;;;;;;61.17;31.83;;;;;;;9.96;58.96;101287.03;7382718;19;20051;-72
2021/11/16 08:25:58;;;;;;;60.30;31.20;;;;;;;10.07;58.86;101279.84;7382085;19;20041;-72
2021/11/16 08:28:47;;;;;;;53.78;29.15;;;;;;;10.11;58.12;101283.25;7381626;19;20017;-71
2021/11/16 08:31:42;;;;;;;58.20;29.60;;;;;;;10.21;58.67;101287.47;7379177;19;20031;-73
2021/11/16 08:34:32;;;;;;;61.60;31.65;;;;;;;10.34;58.26;101282.81;7380846;19;20133;-73
2021/11/16 08:37:24;;;;;;;61.70;32.65;;;;;;;10.38;57.65;101274.84;7379004;19;20059;-72
2021/11/16 08:40:16;;;;;;;58.67;31.30;;;;;;;10.47;57.73;101281.66;7380862;19;20379;-75
2021/11/16 08:43:11;;;;;;;54.53;30.55;;;;;;;10.47;58.03;101286.06;7385106;19;20017;-69
2021/11/16 08:46:03;;;;;;;52.58;27.88;;;;;;;10.49;57.60;101279.88;7377230;19;20037;-66
2021/11/16 08:48:51;;;;;;;;;;;;;;;10.68;57.69;101283.81;7382701;19;20035;-68
2021/11/16 08:51:44;;;;;;;57.75;28.83;;;;;;;10.67;57.35;101276.84;7390102;19;20040;-67
2021/11/16 08:54:38;;;;;;;58.17;29.92;;;;;;;10.69;57.41;101271.56;7390658;19;20051;-66
2021/11/16 08:57:28;;;;;;;57.63;29.10;;;;;;;10.79;57.56;101266.97;7387883;19;20122;-65
2021/11/16 09:00:20;;;;;;;59.28;29.88;;;;;;;10.83;57.28;101268.66;7384332;19;20039;-66
2021/11/16 09:03:11;;;;;;;63.35;32.15;;;;;;;10.79;56.73;101280.09;7391312;19;20047;-69
2021/11/16 09:06:01;;;;;;;57.50;30.90;;;;;;;10.79;57.13;101274.84;7393763;19;20029;-68
2021/11/16 09:09:09;;;;;;;60.13;31.33;;;;;;;10.68;57.44;101280.34;7394867;19;20254;-70
2021/11/16 09:12:03;;;;;;;59.50;32.72;;;;;;;10.78;56.96;101275.72;7391928;19;20114;-69
2021/11/16 09:14:57;;;;;;;63.25;31.73;;;;;;;10.80;57.03;101279.19;7385996;19;20048;-73
2021/11/16 09:17:45;;;;;;;55.35;28.23;;;;;;;10.84;56.90;101273.00;7386779;19;20021;-70
2021/11/16 09:20:33;;;;;;;49.70;24.25;;;;;;;10.82;56.56;101269.50;7385048;19;20048;-69
2021/11/16 09:23:27;;;;;;;49.30;26.35;;;;;;;10.80;56.89;101264.31;7385777;19;20098;-68
2021/11/16 09:26:23;;;;;;;52.33;26.77;;;;;;;10.85;56.60;101266.84;7388584;19;20030;-69
2021/11/16 09:29:20;;;;;;;57.15;29.05;;;;;;;10.75;56.78;101265.31;7389728;19;20013;-72
2021/11/16 09:32:10;;;;;;;54.75;28.13;;;;;;;10.82;56.35;101256.41;7389721;19;20044;-71
2021/11/16 09:34:59;;;;;;;59.70;29.20;;;;;;;10.86;56.52;101260.69;7386529;19;20455;-69
2021/11/16 09:37:48;;;;;;;54.28;27.30;;;;;;;10.93;56.60;101264.91;7388443;19;20022;-72
2021/11/16 09:40:36;;;;;;;49.35;26.73;;;;;;;10.99;56.38;101262.97;7385596;19;20018;-67
2021/11/16 09:43:26;;;;;;;52.45;26.27;;;;;;;10.91;56.20;101257.06;7386579;19;20055;-68
2021/11/16 09:46:19;;;;;;;49.67;25.73;;;;;;;10.92;56.03;101263.16;7384605;19;20022;-66
2021/11/16 09:49:07;;;;;;;47.78;24.10;;;;;;;10.96;56.20;101270.06;7386238;19;20027;-67
2021/11/16 09:52:02;;;;;;;49.28;23.80;;;;;;;10.86;55.96;101264.19;7383803;19;20354;-70
2021/11/16 09:54:55;;;;;;;48.00;24.95;;;;;;;10.82;55.91;101267.75;7385210;19;20021;-68
2021/11/16 09:57:47;;;;;;;48.20;24.85;;;;;;;10.93;56.28;101264.91;7386254;19;20051;-68
2021/11/16 10:00:38;;;;;;;52.15;25.90;;;;;;;10.96;56.17;101262.19;7380199;19;20052;-68
2021/11/16 10:03:28;;;;;;;46.38;26.55;;;;;;;10.93;55.79;101257.88;7384817;19;20022;-69
2021/11/16 10:06:17;;;;;;;51.45;28.10;;;;;;;10.91;55.96;101256.19;7383488;19;20018;-70
2021/11/16 10:09:07;;;;;;;45.78;25.55;;;;;;;10.94;56.10;101253.50;7385909;19;20018;-73
2021/11/16 10:11:56;;;;;;;49.83;25.10;;;;;;;11.00;56.02;101246.34;7383095;19;20071;-68
2021/11/16 10:14:44;;;;;;;48.45;25.60;;;;;;;11.03;55.91;101244.53;7383358;19;20022;-67
2021/11/16 10:17:32;;;;;;;54.10;26.98;;;;;;;11.05;55.84;101243.63;7383605;19;20462;-67
2021/11/16 10:20:25;;;;;;;49.20;25.50;;;;;;;11.08;55.75;101242.69;7381994;19;20055;-71
2021/11/16 10:23:16;;;;;;;45.22;25.15;;;;;;;11.08;55.50;101238.28;7385424;19;20041;-70
2021/11/16 10:26:05;;;;;;;47.90;26.60;;;;;;;11.05;56.11;101232.25;7382000;19;20122;-69
2021/11/16 10:28:53;;;;;;;50.35;27.40;;;;;;;11.11;55.90;101225.09;7387528;19;20491;-70
2021/11/16 10:31:42;;;;;;;47.92;24.83;;;;;;;11.11;55.91;101224.22;7385792;19;20043;-69
2021/11/16 10:34:43;;;;;;;47.45;27.35;;;;;;;11.17;55.70;101222.31;7384692;19;20030;-68
2021/11/16 10:37:47;;;;;;;56.33;28.38;;;;;;;11.33;55.49;101211.41;7386112;19;20033;-68
2021/11/16 10:40:34;;;;;;;47.90;26.25;;;;;;;11.47;55.01;101209.31;7383519;19;20548;-71
2021/11/16 10:43:22;;;;;;;51.28;27.88;;;;;;;11.42;54.93;101219.03;7387968;19;20026;-67
2021/11/16 10:46:11;;;;;;;52.85;28.67;;;;;;;11.35;55.42;101220.13;7383276;19;20021;-69
2021/11/16 10:49:05;;;;;;;55.80;28.30;;;;;;;11.40;55.30;101212.97;7387043;19;20025;-69
2021/11/16 10:51:55;;;;;;;56.72;28.55;;;;;;;11.53;55.06;101214.38;7383084;19;21138;-68
2021/11/16 10:55:01;;;;;;;49.25;28.40;;;;;;;11.47;55.29;101209.31;7385188;19;20025;-68
2021/11/16 10:58:04;;;;;;;48.92;26.40;;;;;;;11.42;55.51;101217.28;7386904;19;20047;-67
2021/11/16 11:00:56;;;;;;;55.40;27.67;;;;;;;11.41;55.43;101209.44;7384296;19;20502;-67
2021/11/16 11:03:45;;;;;;;;;;;;;;;11.50;55.66;101214.47;7384627;19;20500;-68
2021/11/16 11:06:39;;;;;;;50.70;26.70;;;;;;;11.44;55.02;101204.09;7384184;19;19935;-66
2021/11/16 11:09:28;;;;;;;47.10;25.83;;;;;;;11.32;55.36;101199.19;7387262;19;20029;-67
2021/11/16 11:12:29;;;;;;;47.15;26.92;;;;;;;11.27;55.52;101200.19;7384949;19;20037;-67
2021/11/16 11:15:35;;;;;;;52.85;28.27;;;;;;;11.35;55.52;101201.75;7386267;19;20040;-66
2021/11/16 11:18:36;;;;;;;53.95;27.42;;;;;;;11.36;55.39;101195.59;7386518;19;20021;-66
2021/11/16 11:21:44;;;;;;;46.22;26.10;;;;;;;11.35;55.66;101189.47;7383989;19;20022;-66
2021/11/16 11:24:38;;;;;;;52.28;27.45;;;;;;;11.40;55.44;101181.47;7385893;19;20029;-67
2021/11/16 11:27:33;;;;;;;52.78;26.90;;;;;;;11.34;55.65;101179.88;7386269;19;20051;-67
2021/11/16 11:30:22;;;;;;;50.00;27.13;;;;;;;11.43;55.43;101171.75;7385615;19;20037;-65
2021/11/16 11:33:14;;;;;;;51.15;28.55;;;;;;;11.54;55.11;101179.34;7385395;19;20528;-67
2021/11/16 11:36:20;;;;;;;51.63;28.70;;;;;;;11.41;55.82;101164.81;7384952;19;20629;-65
2021/11/16 11:39:22;;;;;;;54.55;27.65;;;;;;;11.39;55.22;101162.22;7385027;19;20537;-66
2021/11/16 11:42:13;;;;;;;;;;;;;;;11.48;55.42;101163.75;7387304;19;20033;-67
2021/11/16 11:45:19;;;;;;;52.92;28.23;;;;;;;11.46;55.39;101160.31;7382347;19;19934;-70
2021/11/16 11:48:12;;;;;;;55.83;28.77;;;;;;;11.40;55.50;101161.31;7384789;19;20041;-71
2021/11/16 11:51:10;;;;;;;51.40;28.73;;;;;;;11.39;55.57;101156.13;7384182;19;20035;-70
2021/11/16 11:53:59;;;;;;;56.50;28.15;;;;;;;11.36;55.88;101150.97;7384559;19;20025;-73
2021/11/16 11:56:50;;;;;;;52.83;28.60;;;;;;;11.43;55.35;101152.50;7384489;19;20021;-69
2021/11/16 11:59:37;;;;;;;49.83;28.92;;;;;;;11.50;55.33;101146.19;7384524;19;20369;-70
2021/11/16 12:02:31;;;;;;;58.03;29.73;;;;;;;11.54;55.19;101138.19;7385538;19;20492;-69
2021/11/16 12:05:19;;;;;;;56.92;30.45;;;;;;;11.59;55.21;101143.28;7382570;19;20028;-74
2021/11/16 12:08:09;;;;;;;54.25;29.70;;;;;;;11.62;55.25;101137.97;7386650;19;20115;-69
2021/11/16 12:10:56;;;;;;;58.97;30.15;;;;;;;11.59;55.16;101135.41;7383936;19;20033;-75
2021/11/16 12:13:44;;;;;;;48.95;28.00;;;;;;;11.58;55.72;101128.44;7384410;19;20577;-69
2021/11/16 12:16:39;;;;;;;50.85;27.88;;;;;;;11.66;55.60;101125.59;7383673;19;20025;-67
2021/11/16 12:19:41;;;;;;;57.42;29.15;;;;;;;11.75;55.31;101131.47;7381534;19;20967;-72
2021/11/16 12:22:33;;;;;;;53.65;28.75;;;;;;;11.78;55.03;101123.50;7385779;19;20049;-66
2021/11/16 12:25:23;;;;;;;52.45;29.23;;;;;;;11.68;55.23;101114.16;7386752;19;20047;-68
2021/11/16 12:28:25;;;;;;;58.47;29.67;;;;;;;11.70;55.25;101109.72;7391966;19;20028;-68
2021/11/16 12:31:27;;;;;;;61.30;30.98;;;;;;;11.77;55.05;101108.63;7389382;19;20043;-67
2021/11/16 12:34:33;;;;;;;55.30;29.27;;;;;;;11.86;54.87;101102.25;7390264;19;20031;-67
2021/11/16 12:37:42;;;;;;;59.00;30.50;;;;;;;11.80;54.94;101103.31;7392545;19;20528;-67
2021/11/16 12:40:41;;;;;;;58.28;30.13;;;;;;;11.83;55.22;101099.72;7386269;19;20029;-69
2021/11/16 12:43:30;;;;;;;58.00;29.92;;;;;;;11.88;55.01;101097.84;7388092;19;20498;-68
2021/11/16 12:46:21;;;;;;;54.35;28.80;;;;;;;11.86;54.79;101087.34;7386290;19;20041;-68
2021/11/16 12:49:10;;;;;;;55.42;28.80;;;;;;;11.92;54.64;101091.59;7386453;19;20030;-68
2021/11/16 12:52:04;;;;;;;55.13;29.67;;;;;;;11.87;55.12;101091.72;7384149;19;20026;-73
2021/11/16 12:54:54;;;;;;;58.60;30.95;;;;;;;11.83;54.92;101076.94;7392063;19;20051;-77
2021/11/16 12:57:42;;;;;;;55.45;30.17;;;;;;;11.79;55.12;101080.56;7392362;19;20025;-77
2021/11/16 13:00:36;;;;;;;58.50;32.00;;;;;;;11.61;55.38;101074.06;7389353;19;20044;-71
2021/11/16 13:03:54;;;;;;;54.63;29.67;;;;;;;11.57;55.24;101084.72;7391210;19;20026;-66
2021/11/16 13:06:43;;;;;;;59.00;30.30;;;;;;;11.70;55.33;101072.94;7388160;19;20033;-68
2021/11/16 13:09:47;;;;;;;55.22;29.88;;;;;;;11.63;55.32;101066.13;7390792;19;20399;-68
2021/11/16 13:12:51;;;;;;;60.83;29.63;;;;;;;11.64;55.46;101067.84;7391124;19;20025;-66
2021/11/16 13:15:59;;;;;;;56.65;31.27;;;;;;;11.57;55.20;101072.44;7389782;19;20047;-67